sensor_id;sensor_type;location;lat;lon;timestamp;temperature;humidity
16477;DHT22;8349;50.928;6.376;2022-09-03T00:01:22;18.60;96.30
16477;DHT22;8349;50.928;6.376;2022-09-03T00:03:50;18.60;96.50
16477;DHT22;8349;50.928;6.376;2022-09-03T00:06:20;18.50;96.60
16477;DHT22;8349;50.928;6.376;2022-09-03T00:08:49;18.50;96.70
16477;DHT22;8349;50.928;6.376;2022-09-03T00:11:19;18.40;96.70
16477;DHT22;8349;50.928;6.376;2022-09-03T00:13:49;18.40;96.70
16477;DHT22;8349;50.928;6.376;2022-09-03T00:16:17;18.30;96.70
16477;DHT22;8349;50.928;6.376;2022-09-03T00:18:46;18.30;96.80
16477;DHT22;8349;50.928;6.376;2022-09-03T00:21:17;18.30;96.80
16477;DHT22;8349;50.928;6.376;2022-09-03T00:23:44;18.30;96.70
16477;DHT22;8349;50.928;6.376;2022-09-03T00:26:16;18.30;96.70
16477;DHT22;8349;50.928;6.376;2022-09-03T00:28:44;18.30;96.80
16477;DHT22;8349;50.928;6.376;2022-09-03T00:31:13;18.30;96.80
16477;DHT22;8349;50.928;6.376;2022-09-03T00:33:42;18.30;96.90
16477;DHT22;8349;50.928;6.376;2022-09-03T00:36:11;18.30;96.90
16477;DHT22;8349;50.928;6.376;2022-09-03T00:38:40;18.30;96.90
16477;DHT22;8349;50.928;6.376;2022-09-03T00:41:07;18.20;96.90
16477;DHT22;8349;50.928;6.376;2022-09-03T00:43:41;18.20;97.00
16477;DHT22;8349;50.928;6.376;2022-09-03T00:46:14;18.30;96.90
16477;DHT22;8349;50.928;6.376;2022-09-03T00:48:48;18.30;97.00
16477;DHT22;8349;50.928;6.376;2022-09-03T00:51:17;18.20;97.00
16477;DHT22;8349;50.928;6.376;2022-09-03T00:53:51;18.20;97.00
16477;DHT22;8349;50.928;6.376;2022-09-03T00:56:21;18.20;97.20
16477;DHT22;8349;50.928;6.376;2022-09-03T00:59:00;18.20;97.20
16477;DHT22;8349;50.928;6.376;2022-09-03T01:01:30;18.10;97.30
16477;DHT22;8349;50.928;6.376;2022-09-03T01:04:05;18.00;97.30
16477;DHT22;8349;50.928;6.376;2022-09-03T01:06:36;18.00;97.50
16477;DHT22;8349;50.928;6.376;2022-09-03T01:09:08;18.00;97.60
16477;DHT22;8349;50.928;6.376;2022-09-03T01:11:38;18.00;97.60
16477;DHT22;8349;50.928;6.376;2022-09-03T01:14:15;17.90;97.70
16477;DHT22;8349;50.928;6.376;2022-09-03T01:16:46;18.00;97.70
16477;DHT22;8349;50.928;6.376;2022-09-03T01:19:20;17.90;97.80
16477;DHT22;8349;50.928;6.376;2022-09-03T01:21:58;17.90;97.80
16477;DHT22;8349;50.928;6.376;2022-09-03T01:24:35;17.90;97.80
16477;DHT22;8349;50.928;6.376;2022-09-03T01:27:11;17.90;97.90
16477;DHT22;8349;50.928;6.376;2022-09-03T01:29:44;17.90;98.00
16477;DHT22;8349;50.928;6.376;2022-09-03T01:32:13;17.80;98.00
16477;DHT22;8349;50.928;6.376;2022-09-03T01:34:46;17.80;98.20
16477;DHT22;8349;50.928;6.376;2022-09-03T01:37:17;17.80;98.20
16477;DHT22;8349;50.928;6.376;2022-09-03T01:39:50;17.80;98.20
16477;DHT22;8349;50.928;6.376;2022-09-03T01:42:20;17.80;98.20
16477;DHT22;8349;50.928;6.376;2022-09-03T01:44:54;17.80;98.30
16477;DHT22;8349;50.928;6.376;2022-09-03T01:47:35;17.70;98.40
16477;DHT22;8349;50.928;6.376;2022-09-03T01:50:04;17.70;98.50
16477;DHT22;8349;50.928;6.376;2022-09-03T01:52:36;17.60;98.50
16477;DHT22;8349;50.928;6.376;2022-09-03T01:55:08;17.60;98.70
16477;DHT22;8349;50.928;6.376;2022-09-03T01:57:44;17.50;98.80
16477;DHT22;8349;50.928;6.376;2022-09-03T02:00:15;17.50;99.00
16477;DHT22;8349;50.928;6.376;2022-09-03T02:02:45;17.60;98.90
16477;DHT22;8349;50.928;6.376;2022-09-03T02:05:14;17.60;98.90
16477;DHT22;8349;50.928;6.376;2022-09-03T02:07:42;17.50;99.10
16477;DHT22;8349;50.928;6.376;2022-09-03T02:10:10;17.40;99.10
16477;DHT22;8349;50.928;6.376;2022-09-03T02:12:37;17.40;99.20
16477;DHT22;8349;50.928;6.376;2022-09-03T02:15:09;17.40;99.30
16477;DHT22;8349;50.928;6.376;2022-09-03T02:17:38;17.40;99.30
16477;DHT22;8349;50.928;6.376;2022-09-03T02:20:07;17.40;99.40
16477;DHT22;8349;50.928;6.376;2022-09-03T02:22:36;17.30;99.30
16477;DHT22;8349;50.928;6.376;2022-09-03T02:25:04;17.30;99.50
16477;DHT22;8349;50.928;6.376;2022-09-03T02:27:30;17.20;99.60
16477;DHT22;8349;50.928;6.376;2022-09-03T02:29:57;17.30;99.70
16477;DHT22;8349;50.928;6.376;2022-09-03T02:32:24;17.20;99.80
16477;DHT22;8349;50.928;6.376;2022-09-03T02:34:52;17.10;99.80
16477;DHT22;8349;50.928;6.376;2022-09-03T02:37:19;17.10;99.90
16477;DHT22;8349;50.928;6.376;2022-09-03T02:39:46;17.10;99.90
16477;DHT22;8349;50.928;6.376;2022-09-03T02:42:13;17.10;99.90
16477;DHT22;8349;50.928;6.376;2022-09-03T02:44:40;17.10;99.90
16477;DHT22;8349;50.928;6.376;2022-09-03T02:47:08;17.10;99.90
16477;DHT22;8349;50.928;6.376;2022-09-03T02:49:34;17.10;99.90
16477;DHT22;8349;50.928;6.376;2022-09-03T02:52:03;17.10;99.90
16477;DHT22;8349;50.928;6.376;2022-09-03T02:54:31;17.10;99.90
16477;DHT22;8349;50.928;6.376;2022-09-03T02:57:00;17.20;99.90
16477;DHT22;8349;50.928;6.376;2022-09-03T02:59:27;17.20;99.90
16477;DHT22;8349;50.928;6.376;2022-09-03T03:01:54;17.30;99.90
16477;DHT22;8349;50.928;6.376;2022-09-03T03:04:21;17.40;99.90
16477;DHT22;8349;50.928;6.376;2022-09-03T03:06:48;17.40;99.90
16477;DHT22;8349;50.928;6.376;2022-09-03T03:09:16;17.50;99.90
16477;DHT22;8349;50.928;6.376;2022-09-03T03:11:43;17.50;99.90
16477;DHT22;8349;50.928;6.376;2022-09-03T03:14:11;17.50;99.90
16477;DHT22;8349;50.928;6.376;2022-09-03T03:16:37;17.60;99.90
16477;DHT22;8349;50.928;6.376;2022-09-03T03:19:04;17.60;99.90
16477;DHT22;8349;50.928;6.376;2022-09-03T03:21:31;17.60;99.90
16477;DHT22;8349;50.928;6.376;2022-09-03T03:23:57;17.60;99.90
16477;DHT22;8349;50.928;6.376;2022-09-03T03:26:27;17.60;99.90
16477;DHT22;8349;50.928;6.376;2022-09-03T03:28:55;17.60;99.90
16477;DHT22;8349;50.928;6.376;2022-09-03T03:31:22;17.60;99.90
16477;DHT22;8349;50.928;6.376;2022-09-03T03:33:50;17.60;99.90
16477;DHT22;8349;50.928;6.376;2022-09-03T03:36:17;17.60;99.90
16477;DHT22;8349;50.928;6.376;2022-09-03T03:38:44;17.60;99.90
16477;DHT22;8349;50.928;6.376;2022-09-03T03:41:12;17.60;99.90
16477;DHT22;8349;50.928;6.376;2022-09-03T03:43:41;17.60;99.90
16477;DHT22;8349;50.928;6.376;2022-09-03T03:46:08;17.60;99.90
16477;DHT22;8349;50.928;6.376;2022-09-03T03:48:36;17.60;99.90
16477;DHT22;8349;50.928;6.376;2022-09-03T03:51:04;17.60;99.90
16477;DHT22;8349;50.928;6.376;2022-09-03T03:53:32;17.50;99.90
16477;DHT22;8349;50.928;6.376;2022-09-03T03:55:59;17.60;99.90
16477;DHT22;8349;50.928;6.376;2022-09-03T03:58:26;17.70;99.90
16477;DHT22;8349;50.928;6.376;2022-09-03T04:01:02;17.60;99.90
16477;DHT22;8349;50.928;6.376;2022-09-03T04:03:29;17.70;99.90
16477;DHT22;8349;50.928;6.376;2022-09-03T04:05:56;17.70;99.90
16477;DHT22;8349;50.928;6.376;2022-09-03T04:08:24;17.70;99.90
16477;DHT22;8349;50.928;6.376;2022-09-03T04:10:51;17.70;99.90
16477;DHT22;8349;50.928;6.376;2022-09-03T04:13:17;17.60;99.90
16477;DHT22;8349;50.928;6.376;2022-09-03T04:15:44;17.70;99.90
16477;DHT22;8349;50.928;6.376;2022-09-03T04:18:12;17.60;99.90
16477;DHT22;8349;50.928;6.376;2022-09-03T04:20:39;17.60;99.90
16477;DHT22;8349;50.928;6.376;2022-09-03T04:23:06;17.70;99.90
16477;DHT22;8349;50.928;6.376;2022-09-03T04:25:33;17.50;99.90
16477;DHT22;8349;50.928;6.376;2022-09-03T04:27:59;17.60;99.90
16477;DHT22;8349;50.928;6.376;2022-09-03T04:30:28;17.50;99.90
16477;DHT22;8349;50.928;6.376;2022-09-03T04:32:54;17.50;99.90
16477;DHT22;8349;50.928;6.376;2022-09-03T04:35:22;17.40;99.90
16477;DHT22;8349;50.928;6.376;2022-09-03T04:37:49;17.50;99.90
16477;DHT22;8349;50.928;6.376;2022-09-03T04:40:17;17.40;99.90
16477;DHT22;8349;50.928;6.376;2022-09-03T04:42:44;17.40;99.90
16477;DHT22;8349;50.928;6.376;2022-09-03T04:45:11;17.40;99.90
16477;DHT22;8349;50.928;6.376;2022-09-03T04:47:43;17.40;99.90
16477;DHT22;8349;50.928;6.376;2022-09-03T04:50:11;17.40;99.90
16477;DHT22;8349;50.928;6.376;2022-09-03T04:52:39;17.30;99.90
16477;DHT22;8349;50.928;6.376;2022-09-03T04:55:06;17.30;99.90
16477;DHT22;8349;50.928;6.376;2022-09-03T04:57:35;17.30;99.90
16477;DHT22;8349;50.928;6.376;2022-09-03T05:00:03;17.30;99.90
16477;DHT22;8349;50.928;6.376;2022-09-03T05:02:30;17.20;99.90
16477;DHT22;8349;50.928;6.376;2022-09-03T05:04:57;17.30;99.90
16477;DHT22;8349;50.928;6.376;2022-09-03T05:07:24;17.30;99.90
16477;DHT22;8349;50.928;6.376;2022-09-03T05:09:54;17.20;99.90
16477;DHT22;8349;50.928;6.376;2022-09-03T05:12:22;17.20;99.90
16477;DHT22;8349;50.928;6.376;2022-09-03T05:14:49;17.20;99.90
16477;DHT22;8349;50.928;6.376;2022-09-03T05:17:16;17.20;99.90
16477;DHT22;8349;50.928;6.376;2022-09-03T05:19:43;17.20;99.90
16477;DHT22;8349;50.928;6.376;2022-09-03T05:22:09;17.10;99.90
16477;DHT22;8349;50.928;6.376;2022-09-03T05:24:36;17.20;99.90
16477;DHT22;8349;50.928;6.376;2022-09-03T05:27:04;17.20;99.90
16477;DHT22;8349;50.928;6.376;2022-09-03T05:29:32;17.20;99.90
16477;DHT22;8349;50.928;6.376;2022-09-03T05:31:58;17.10;99.90
16477;DHT22;8349;50.928;6.376;2022-09-03T05:34:25;17.10;99.90
16477;DHT22;8349;50.928;6.376;2022-09-03T05:36:52;17.10;99.90
16477;DHT22;8349;50.928;6.376;2022-09-03T05:39:19;17.20;99.90
16477;DHT22;8349;50.928;6.376;2022-09-03T05:41:46;17.10;99.90
16477;DHT22;8349;50.928;6.376;2022-09-03T05:44:16;17.20;99.90
16477;DHT22;8349;50.928;6.376;2022-09-03T05:46:43;17.20;99.90
16477;DHT22;8349;50.928;6.376;2022-09-03T05:49:10;17.20;99.90
16477;DHT22;8349;50.928;6.376;2022-09-03T05:51:37;17.30;99.90
16477;DHT22;8349;50.928;6.376;2022-09-03T05:54:04;17.30;99.90
16477;DHT22;8349;50.928;6.376;2022-09-03T05:56:32;17.40;99.90
16477;DHT22;8349;50.928;6.376;2022-09-03T05:59:01;17.40;99.90
16477;DHT22;8349;50.928;6.376;2022-09-03T06:01:31;17.50;99.90
16477;DHT22;8349;50.928;6.376;2022-09-03T06:03:59;17.50;99.90
16477;DHT22;8349;50.928;6.376;2022-09-03T06:06:27;17.60;99.90
16477;DHT22;8349;50.928;6.376;2022-09-03T06:08:54;17.70;99.90
16477;DHT22;8349;50.928;6.376;2022-09-03T06:11:22;17.80;99.90
16477;DHT22;8349;50.928;6.376;2022-09-03T06:13:52;17.90;99.90
16477;DHT22;8349;50.928;6.376;2022-09-03T06:16:19;17.90;99.90
16477;DHT22;8349;50.928;6.376;2022-09-03T06:18:47;17.90;99.90
16477;DHT22;8349;50.928;6.376;2022-09-03T06:21:15;18.00;99.90
16477;DHT22;8349;50.928;6.376;2022-09-03T06:23:42;18.00;99.90
16477;DHT22;8349;50.928;6.376;2022-09-03T06:26:09;18.00;99.90
16477;DHT22;8349;50.928;6.376;2022-09-03T06:28:37;18.10;99.90
16477;DHT22;8349;50.928;6.376;2022-09-03T06:31:05;18.10;99.90
16477;DHT22;8349;50.928;6.376;2022-09-03T06:33:33;18.10;99.90
16477;DHT22;8349;50.928;6.376;2022-09-03T06:36:02;18.10;99.90
16477;DHT22;8349;50.928;6.376;2022-09-03T06:38:30;18.10;99.90
16477;DHT22;8349;50.928;6.376;2022-09-03T06:40:58;18.10;99.90
16477;DHT22;8349;50.928;6.376;2022-09-03T06:43:28;18.20;99.90
16477;DHT22;8349;50.928;6.376;2022-09-03T06:45:55;18.20;99.90
16477;DHT22;8349;50.928;6.376;2022-09-03T06:48:22;18.20;99.90
16477;DHT22;8349;50.928;6.376;2022-09-03T06:50:53;18.20;99.90
16477;DHT22;8349;50.928;6.376;2022-09-03T06:53:23;18.30;99.90
16477;DHT22;8349;50.928;6.376;2022-09-03T06:55:53;18.30;99.90
16477;DHT22;8349;50.928;6.376;2022-09-03T06:58:20;18.30;99.90
16477;DHT22;8349;50.928;6.376;2022-09-03T07:00:48;18.30;99.90
16477;DHT22;8349;50.928;6.376;2022-09-03T07:03:17;18.30;99.90
16477;DHT22;8349;50.928;6.376;2022-09-03T07:05:44;18.40;99.90
16477;DHT22;8349;50.928;6.376;2022-09-03T07:08:10;18.40;99.90
16477;DHT22;8349;50.928;6.376;2022-09-03T07:10:39;18.40;99.90
16477;DHT22;8349;50.928;6.376;2022-09-03T07:13:08;18.50;99.90
16477;DHT22;8349;50.928;6.376;2022-09-03T07:15:34;18.50;99.90
16477;DHT22;8349;50.928;6.376;2022-09-03T07:18:01;18.60;99.90
16477;DHT22;8349;50.928;6.376;2022-09-03T07:20:28;18.60;99.90
16477;DHT22;8349;50.928;6.376;2022-09-03T07:22:54;18.60;99.90
16477;DHT22;8349;50.928;6.376;2022-09-03T07:25:22;18.60;99.90
16477;DHT22;8349;50.928;6.376;2022-09-03T07:27:50;18.60;99.90
16477;DHT22;8349;50.928;6.376;2022-09-03T07:30:17;18.50;99.90
16477;DHT22;8349;50.928;6.376;2022-09-03T07:32:45;18.60;99.90
16477;DHT22;8349;50.928;6.376;2022-09-03T07:35:11;18.60;99.90
16477;DHT22;8349;50.928;6.376;2022-09-03T07:37:39;18.60;99.90
16477;DHT22;8349;50.928;6.376;2022-09-03T07:40:06;18.60;99.90
16477;DHT22;8349;50.928;6.376;2022-09-03T07:42:33;18.60;99.90
16477;DHT22;8349;50.928;6.376;2022-09-03T07:45:05;18.70;99.90
16477;DHT22;8349;50.928;6.376;2022-09-03T07:47:34;18.80;99.90
16477;DHT22;8349;50.928;6.376;2022-09-03T07:50:01;18.80;99.90
16477;DHT22;8349;50.928;6.376;2022-09-03T07:52:29;18.90;99.90
16477;DHT22;8349;50.928;6.376;2022-09-03T07:54:56;19.00;99.90
16477;DHT22;8349;50.928;6.376;2022-09-03T07:57:23;19.00;99.90
16477;DHT22;8349;50.928;6.376;2022-09-03T07:59:50;19.10;99.90
16477;DHT22;8349;50.928;6.376;2022-09-03T08:02:18;19.20;99.90
16477;DHT22;8349;50.928;6.376;2022-09-03T08:04:45;19.20;99.90
16477;DHT22;8349;50.928;6.376;2022-09-03T08:07:12;19.40;99.90
16477;DHT22;8349;50.928;6.376;2022-09-03T08:09:39;19.60;99.90
16477;DHT22;8349;50.928;6.376;2022-09-03T08:12:06;19.80;99.90
16477;DHT22;8349;50.928;6.376;2022-09-03T08:14:33;19.90;99.90
16477;DHT22;8349;50.928;6.376;2022-09-03T08:17:00;19.90;99.90
16477;DHT22;8349;50.928;6.376;2022-09-03T08:19:28;19.90;99.90
16477;DHT22;8349;50.928;6.376;2022-09-03T08:21:55;19.80;99.90
16477;DHT22;8349;50.928;6.376;2022-09-03T08:24:22;19.90;99.90
16477;DHT22;8349;50.928;6.376;2022-09-03T08:26:50;20.00;99.90
16477;DHT22;8349;50.928;6.376;2022-09-03T08:29:17;20.10;99.90
16477;DHT22;8349;50.928;6.376;2022-09-03T08:31:44;20.30;99.90
16477;DHT22;8349;50.928;6.376;2022-09-03T08:34:11;20.40;99.90
16477;DHT22;8349;50.928;6.376;2022-09-03T08:36:40;20.40;99.90
16477;DHT22;8349;50.928;6.376;2022-09-03T08:39:08;20.40;99.90
16477;DHT22;8349;50.928;6.376;2022-09-03T08:41:41;20.50;99.90
16477;DHT22;8349;50.928;6.376;2022-09-03T08:44:14;20.60;99.90
16477;DHT22;8349;50.928;6.376;2022-09-03T08:46:46;20.70;99.90
16477;DHT22;8349;50.928;6.376;2022-09-03T08:49:17;20.70;99.90
16477;DHT22;8349;50.928;6.376;2022-09-03T08:51:47;20.70;99.90
16477;DHT22;8349;50.928;6.376;2022-09-03T08:54:15;20.70;99.90
16477;DHT22;8349;50.928;6.376;2022-09-03T08:56:42;20.90;99.90
16477;DHT22;8349;50.928;6.376;2022-09-03T08:59:09;20.90;99.90
16477;DHT22;8349;50.928;6.376;2022-09-03T09:01:39;20.90;99.90
16477;DHT22;8349;50.928;6.376;2022-09-03T09:04:09;21.00;99.90
16477;DHT22;8349;50.928;6.376;2022-09-03T09:06:40;21.10;99.90
16477;DHT22;8349;50.928;6.376;2022-09-03T09:09:14;21.10;99.90
16477;DHT22;8349;50.928;6.376;2022-09-03T09:11:45;21.20;99.90
16477;DHT22;8349;50.928;6.376;2022-09-03T09:14:15;21.40;99.90
16477;DHT22;8349;50.928;6.376;2022-09-03T09:16:46;21.70;99.90
16477;DHT22;8349;50.928;6.376;2022-09-03T09:19:19;21.80;99.90
16477;DHT22;8349;50.928;6.376;2022-09-03T09:21:48;22.00;99.90
16477;DHT22;8349;50.928;6.376;2022-09-03T09:24:20;22.40;99.90
16477;DHT22;8349;50.928;6.376;2022-09-03T09:26:48;22.50;99.90
16477;DHT22;8349;50.928;6.376;2022-09-03T09:29:15;22.80;99.90
16477;DHT22;8349;50.928;6.376;2022-09-03T09:31:42;23.20;99.90
16477;DHT22;8349;50.928;6.376;2022-09-03T09:34:10;23.20;99.90
16477;DHT22;8349;50.928;6.376;2022-09-03T09:36:41;23.40;99.90
16477;DHT22;8349;50.928;6.376;2022-09-03T09:39:08;23.60;99.90
16477;DHT22;8349;50.928;6.376;2022-09-03T09:41:37;23.80;99.90
16477;DHT22;8349;50.928;6.376;2022-09-03T09:44:03;24.10;99.90
16477;DHT22;8349;50.928;6.376;2022-09-03T09:46:32;24.20;99.90
16477;DHT22;8349;50.928;6.376;2022-09-03T09:49:00;24.20;99.90
16477;DHT22;8349;50.928;6.376;2022-09-03T09:51:27;24.40;99.90
16477;DHT22;8349;50.928;6.376;2022-09-03T09:53:59;24.40;99.90
16477;DHT22;8349;50.928;6.376;2022-09-03T09:56:26;24.50;99.90
16477;DHT22;8349;50.928;6.376;2022-09-03T09:59:02;24.60;99.90
16477;DHT22;8349;50.928;6.376;2022-09-03T10:01:29;24.50;99.90
16477;DHT22;8349;50.928;6.376;2022-09-03T10:03:57;24.60;99.90
16477;DHT22;8349;50.928;6.376;2022-09-03T10:06:24;24.70;99.90
16477;DHT22;8349;50.928;6.376;2022-09-03T10:09:10;24.90;99.90
16477;DHT22;8349;50.928;6.376;2022-09-03T10:11:37;25.20;99.90
16477;DHT22;8349;50.928;6.376;2022-09-03T10:14:09;25.50;99.90
16477;DHT22;8349;50.928;6.376;2022-09-03T10:16:39;25.50;99.90
16477;DHT22;8349;50.928;6.376;2022-09-03T10:19:10;25.80;99.90
16477;DHT22;8349;50.928;6.376;2022-09-03T10:21:40;26.30;99.90
16477;DHT22;8349;50.928;6.376;2022-09-03T10:24:14;26.50;99.90
16477;DHT22;8349;50.928;6.376;2022-09-03T10:26:44;26.70;99.90
16477;DHT22;8349;50.928;6.376;2022-09-03T10:29:14;26.60;99.90
16477;DHT22;8349;50.928;6.376;2022-09-03T10:31:44;26.70;99.90
16477;DHT22;8349;50.928;6.376;2022-09-03T10:34:13;27.00;99.90
16477;DHT22;8349;50.928;6.376;2022-09-03T10:36:43;27.20;99.90
16477;DHT22;8349;50.928;6.376;2022-09-03T10:39:13;27.50;99.90
16477;DHT22;8349;50.928;6.376;2022-09-03T10:41:45;27.80;99.90
16477;DHT22;8349;50.928;6.376;2022-09-03T10:44:26;28.20;99.90
16477;DHT22;8349;50.928;6.376;2022-09-03T10:47:02;28.30;99.80
16477;DHT22;8349;50.928;6.376;2022-09-03T10:49:36;28.60;99.90
16477;DHT22;8349;50.928;6.376;2022-09-03T10:52:08;28.70;99.90
16477;DHT22;8349;50.928;6.376;2022-09-03T10:54:43;29.10;99.40
16477;DHT22;8349;50.928;6.376;2022-09-03T10:57:17;29.40;99.50
16477;DHT22;8349;50.928;6.376;2022-09-03T10:59:53;29.80;99.10
16477;DHT22;8349;50.928;6.376;2022-09-03T11:02:28;29.90;98.90
16477;DHT22;8349;50.928;6.376;2022-09-03T11:05:00;29.80;98.70
16477;DHT22;8349;50.928;6.376;2022-09-03T11:07:30;29.60;98.60
16477;DHT22;8349;50.928;6.376;2022-09-03T11:10:04;28.80;98.90
16477;DHT22;8349;50.928;6.376;2022-09-03T11:12:32;28.60;99.30
16477;DHT22;8349;50.928;6.376;2022-09-03T11:15:03;28.30;99.20
16477;DHT22;8349;50.928;6.376;2022-09-03T11:17:33;28.00;99.40
16477;DHT22;8349;50.928;6.376;2022-09-03T11:20:03;28.00;99.80
16477;DHT22;8349;50.928;6.376;2022-09-03T11:22:32;27.90;99.90
16477;DHT22;8349;50.928;6.376;2022-09-03T11:25:00;27.80;99.80
16477;DHT22;8349;50.928;6.376;2022-09-03T11:27:30;27.90;99.90
16477;DHT22;8349;50.928;6.376;2022-09-03T11:29:59;30.50;99.30
16477;DHT22;8349;50.928;6.376;2022-09-03T11:32:30;34.00;97.40
16477;DHT22;8349;50.928;6.376;2022-09-03T11:35:01;35.80;96.00
16477;DHT22;8349;50.928;6.376;2022-09-03T11:37:44;38.20;94.60
16477;DHT22;8349;50.928;6.376;2022-09-03T11:40:13;38.60;94.00
16477;DHT22;8349;50.928;6.376;2022-09-03T11:42:44;39.90;93.20
16477;DHT22;8349;50.928;6.376;2022-09-03T11:45:19;40.90;92.30
16477;DHT22;8349;50.928;6.376;2022-09-03T11:47:48;41.80;91.60
16477;DHT22;8349;50.928;6.376;2022-09-03T11:50:16;43.00;91.40
16477;DHT22;8349;50.928;6.376;2022-09-03T11:52:45;43.50;90.10
16477;DHT22;8349;50.928;6.376;2022-09-03T11:55:23;43.30;89.60
16477;DHT22;8349;50.928;6.376;2022-09-03T11:57:49;42.30;89.20
16477;DHT22;8349;50.928;6.376;2022-09-03T12:00:17;42.40;89.10
16477;DHT22;8349;50.928;6.376;2022-09-03T12:02:48;42.70;88.60
16477;DHT22;8349;50.928;6.376;2022-09-03T12:05:19;41.90;89.00
16477;DHT22;8349;50.928;6.376;2022-09-03T12:07:52;42.00;88.90
16477;DHT22;8349;50.928;6.376;2022-09-03T12:10:27;42.60;89.70
16477;DHT22;8349;50.928;6.376;2022-09-03T12:12:59;43.50;88.10
16477;DHT22;8349;50.928;6.376;2022-09-03T12:15:34;42.50;88.60
16477;DHT22;8349;50.928;6.376;2022-09-03T12:18:05;41.10;89.20
16477;DHT22;8349;50.928;6.376;2022-09-03T12:20:45;42.00;88.60
16477;DHT22;8349;50.928;6.376;2022-09-03T12:23:12;42.80;88.40
16477;DHT22;8349;50.928;6.376;2022-09-03T12:25:42;42.80;87.70
16477;DHT22;8349;50.928;6.376;2022-09-03T12:28:10;43.00;87.50
16477;DHT22;8349;50.928;6.376;2022-09-03T12:30:37;43.00;86.90
16477;DHT22;8349;50.928;6.376;2022-09-03T12:33:06;41.70;87.30
16477;DHT22;8349;50.928;6.376;2022-09-03T12:35:36;42.00;87.00
16477;DHT22;8349;50.928;6.376;2022-09-03T12:38:02;41.80;86.90
16477;DHT22;8349;50.928;6.376;2022-09-03T12:40:29;41.90;87.10
16477;DHT22;8349;50.928;6.376;2022-09-03T12:43:10;41.60;86.60
16477;DHT22;8349;50.928;6.376;2022-09-03T12:45:41;41.90;87.80
16477;DHT22;8349;50.928;6.376;2022-09-03T12:48:12;42.30;86.10
16477;DHT22;8349;50.928;6.376;2022-09-03T12:50:41;42.60;86.30
16477;DHT22;8349;50.928;6.376;2022-09-03T12:53:08;42.50;86.30
16477;DHT22;8349;50.928;6.376;2022-09-03T12:55:37;42.00;85.70
16477;DHT22;8349;50.928;6.376;2022-09-03T12:58:05;41.20;85.90
16477;DHT22;8349;50.928;6.376;2022-09-03T13:00:33;41.20;87.30
16477;DHT22;8349;50.928;6.376;2022-09-03T13:03:02;42.00;86.50
16477;DHT22;8349;50.928;6.376;2022-09-03T13:05:31;41.70;86.50
16477;DHT22;8349;50.928;6.376;2022-09-03T13:08:00;41.10;87.10
16477;DHT22;8349;50.928;6.376;2022-09-03T13:10:29;40.30;86.90
16477;DHT22;8349;50.928;6.376;2022-09-03T13:12:57;39.50;87.00
16477;DHT22;8349;50.928;6.376;2022-09-03T13:15:24;40.00;87.70
16477;DHT22;8349;50.928;6.376;2022-09-03T13:20:40;41.40;86.60
16477;DHT22;8349;50.928;6.376;2022-09-03T13:23:12;39.90;86.40
16477;DHT22;8349;50.928;6.376;2022-09-03T13:25:43;37.30;88.50
16477;DHT22;8349;50.928;6.376;2022-09-03T13:28:18;36.20;90.00
16477;DHT22;8349;50.928;6.376;2022-09-03T13:30:52;35.70;89.90
16477;DHT22;8349;50.928;6.376;2022-09-03T13:33:21;34.20;90.90
16477;DHT22;8349;50.928;6.376;2022-09-03T13:35:52;33.20;91.60
16477;DHT22;8349;50.928;6.376;2022-09-03T13:38:22;32.90;91.70
16477;DHT22;8349;50.928;6.376;2022-09-03T13:40:53;33.10;91.80
16477;DHT22;8349;50.928;6.376;2022-09-03T13:43:22;33.00;91.80
16477;DHT22;8349;50.928;6.376;2022-09-03T13:45:53;33.30;91.80
16477;DHT22;8349;50.928;6.376;2022-09-03T13:48:21;33.60;91.60
16477;DHT22;8349;50.928;6.376;2022-09-03T13:51:10;34.90;92.00
16477;DHT22;8349;50.928;6.376;2022-09-03T13:53:41;36.70;91.10
16477;DHT22;8349;50.928;6.376;2022-09-03T13:56:17;37.70;90.50
16477;DHT22;8349;50.928;6.376;2022-09-03T13:58:45;38.80;90.20
16477;DHT22;8349;50.928;6.376;2022-09-03T14:01:15;39.20;90.00
16477;DHT22;8349;50.928;6.376;2022-09-03T14:03:45;39.20;90.00
16477;DHT22;8349;50.928;6.376;2022-09-03T14:06:18;38.50;89.10
16477;DHT22;8349;50.928;6.376;2022-09-03T14:08:58;37.10;90.20
16477;DHT22;8349;50.928;6.376;2022-09-03T14:11:26;35.60;90.50
16477;DHT22;8349;50.928;6.376;2022-09-03T14:13:59;34.50;91.00
16477;DHT22;8349;50.928;6.376;2022-09-03T14:16:29;33.70;91.50
16477;DHT22;8349;50.928;6.376;2022-09-03T14:18:58;33.40;92.10
16477;DHT22;8349;50.928;6.376;2022-09-03T14:21:28;32.80;92.60
16477;DHT22;8349;50.928;6.376;2022-09-03T14:23:58;32.30;93.00
16477;DHT22;8349;50.928;6.376;2022-09-03T14:26:28;31.80;93.50
16477;DHT22;8349;50.928;6.376;2022-09-03T14:29:00;31.70;93.40
16477;DHT22;8349;50.928;6.376;2022-09-03T14:31:31;31.50;94.00
16477;DHT22;8349;50.928;6.376;2022-09-03T14:34:02;31.20;94.10
16477;DHT22;8349;50.928;6.376;2022-09-03T14:36:36;31.10;94.40
16477;DHT22;8349;50.928;6.376;2022-09-03T14:39:10;31.40;94.60
16477;DHT22;8349;50.928;6.376;2022-09-03T14:41:43;32.20;94.00
16477;DHT22;8349;50.928;6.376;2022-09-03T14:47:12;33.80;93.70
16477;DHT22;8349;50.928;6.376;2022-09-03T14:49:47;35.40;92.50
16477;DHT22;8349;50.928;6.376;2022-09-03T14:52:25;36.20;91.80
16477;DHT22;8349;50.928;6.376;2022-09-03T14:55:01;35.70;91.70
16477;DHT22;8349;50.928;6.376;2022-09-03T14:57:39;34.70;92.50
16477;DHT22;8349;50.928;6.376;2022-09-03T15:00:11;33.50;92.80
16477;DHT22;8349;50.928;6.376;2022-09-03T15:02:48;32.50;93.30
16477;DHT22;8349;50.928;6.376;2022-09-03T15:05:20;31.50;93.80
16477;DHT22;8349;50.928;6.376;2022-09-03T15:07:55;30.90;94.30
16477;DHT22;8349;50.928;6.376;2022-09-03T15:10:26;30.20;95.30
16477;DHT22;8349;50.928;6.376;2022-09-03T15:12:57;29.80;95.90
16477;DHT22;8349;50.928;6.376;2022-09-03T15:15:26;29.50;96.10
16477;DHT22;8349;50.928;6.376;2022-09-03T15:18:01;29.10;96.70
16477;DHT22;8349;50.928;6.376;2022-09-03T15:20:30;28.90;97.40
16477;DHT22;8349;50.928;6.376;2022-09-03T15:23:10;28.70;97.50
16477;DHT22;8349;50.928;6.376;2022-09-03T15:25:52;28.60;97.90
16477;DHT22;8349;50.928;6.376;2022-09-03T15:28:24;28.40;98.40
16477;DHT22;8349;50.928;6.376;2022-09-03T15:30:55;28.00;98.90
16477;DHT22;8349;50.928;6.376;2022-09-03T15:33:27;27.50;99.50
16477;DHT22;8349;50.928;6.376;2022-09-03T15:35:59;27.10;99.90
16477;DHT22;8349;50.928;6.376;2022-09-03T15:38:32;26.90;99.90
16477;DHT22;8349;50.928;6.376;2022-09-03T15:41:01;26.70;99.90
16477;DHT22;8349;50.928;6.376;2022-09-03T15:43:30;26.70;99.90
16477;DHT22;8349;50.928;6.376;2022-09-03T15:45:58;26.50;99.90
16477;DHT22;8349;50.928;6.376;2022-09-03T15:48:28;26.50;99.90
16477;DHT22;8349;50.928;6.376;2022-09-03T15:51:01;26.50;99.90
16477;DHT22;8349;50.928;6.376;2022-09-03T15:53:37;26.30;99.90
16477;DHT22;8349;50.928;6.376;2022-09-03T15:56:11;26.10;99.90
16477;DHT22;8349;50.928;6.376;2022-09-03T15:58:44;26.00;99.90
16477;DHT22;8349;50.928;6.376;2022-09-03T16:01:14;25.90;99.90
16477;DHT22;8349;50.928;6.376;2022-09-03T16:03:48;25.90;99.90
16477;DHT22;8349;50.928;6.376;2022-09-03T16:06:24;25.80;99.90